createdAt,value
2023-03-10T00:00:08.785Z,8.04
2023-03-10T00:02:37.351Z,8.06
2023-03-10T00:05:06.050Z,8.22
2023-03-10T00:07:34.181Z,8.12
2023-03-10T00:10:02.972Z,8.02
2023-03-10T00:12:32.333Z,7.96
2023-03-10T00:15:00.470Z,7.91
2023-03-10T00:17:29.480Z,7.77
2023-03-10T00:19:57.729Z,7.45
2023-03-10T00:22:25.940Z,7.13
2023-03-10T00:24:54.288Z,7.04
2023-03-10T00:27:22.707Z,7.13
2023-03-10T00:29:52.977Z,7.06
2023-03-10T00:32:21.367Z,6.53
2023-03-10T00:34:49.908Z,6.26
2023-03-10T00:37:18.857Z,6.24
2023-03-10T00:39:52.499Z,6.50
2023-03-10T00:42:20.836Z,7.23
2023-03-10T00:44:49.271Z,7.29
2023-03-10T00:47:17.647Z,7.54
2023-03-10T00:49:47.334Z,7.55
2023-03-10T00:52:15.670Z,7.20
2023-03-10T00:54:43.819Z,6.52
2023-03-10T00:57:11.906Z,6.72
2023-03-10T00:59:50.096Z,6.78
2023-03-10T01:02:20.504Z,6.95
2023-03-10T01:04:49.478Z,7.06
2023-03-10T01:07:18.644Z,7.00
2023-03-10T01:09:46.819Z,6.80
2023-03-10T01:12:15.243Z,6.56
2023-03-10T01:14:43.358Z,6.64
2023-03-10T01:17:11.634Z,6.54
2023-03-10T01:19:41.546Z,6.45
2023-03-10T01:22:09.672Z,6.44
2023-03-10T01:24:38.050Z,6.34
2023-03-10T01:27:06.443Z,6.29
2023-03-10T01:29:34.946Z,6.07
2023-03-10T01:32:03.375Z,5.86
2023-03-10T01:34:32.071Z,5.87
2023-03-10T01:37:00.182Z,6.05
2023-03-10T01:39:29.519Z,5.78
2023-03-10T01:41:57.907Z,5.66
2023-03-10T01:44:26.039Z,5.95
2023-03-10T01:46:55.956Z,5.74
2023-03-10T01:49:36.366Z,5.76
2023-03-10T01:52:10.301Z,6.35
2023-03-10T01:54:46.543Z,6.19
2023-03-10T01:57:16.986Z,5.96
2023-03-10T01:59:46.808Z,5.93
2023-03-10T02:02:18.379Z,5.94
2023-03-10T02:04:49.374Z,5.79
2023-03-10T02:07:27.088Z,5.83
2023-03-10T02:09:56.261Z,5.74
2023-03-10T02:12:24.588Z,5.85
2023-03-10T02:14:54.338Z,5.59
2023-03-10T02:17:25.074Z,5.18
2023-03-10T02:20:21.107Z,5.29
2023-03-10T02:22:50.236Z,5.04
2023-03-10T02:25:48.348Z,5.28
2023-03-10T02:28:17.700Z,5.50
2023-03-10T02:30:52.632Z,5.39
2023-03-10T02:33:27.693Z,4.96
2023-03-10T02:36:12.808Z,4.84
2023-03-10T02:38:40.918Z,4.69
2023-03-10T02:41:21.962Z,5.14
2023-03-10T02:43:50.646Z,5.27
2023-03-10T02:46:20.846Z,5.12
2023-03-10T02:48:49.225Z,5.20
2023-03-10T02:51:30.911Z,4.98
2023-03-10T02:54:00.462Z,5.03
2023-03-10T02:56:29.563Z,5.00
2023-03-10T02:58:59.755Z,4.97
2023-03-10T03:01:30.506Z,5.00
2023-03-10T03:04:01.294Z,4.85
2023-03-10T03:06:30.203Z,4.64
2023-03-10T03:08:59.070Z,4.74
2023-03-10T03:11:27.986Z,4.78
2023-03-10T03:13:56.600Z,4.82
2023-03-10T03:16:25.268Z,4.57
2023-03-10T03:18:53.890Z,4.72
2023-03-10T03:21:22.777Z,4.46
2023-03-10T03:23:51.241Z,4.73
2023-03-10T03:26:22.505Z,4.74
2023-03-10T03:28:52.406Z,4.78
2023-03-10T03:31:24.107Z,4.74
2023-03-10T03:33:54.009Z,4.83
2023-03-10T03:36:22.502Z,4.79
2023-03-10T03:38:51.336Z,4.75
2023-03-10T03:41:19.948Z,4.84
2023-03-10T03:43:49.176Z,4.76
2023-03-10T03:46:17.944Z,4.74
2023-03-10T03:48:46.532Z,4.84
2023-03-10T03:51:14.634Z,4.76
2023-03-10T03:53:43.682Z,4.82
2023-03-10T03:56:12.718Z,4.84
2023-03-10T03:58:42.960Z,4.83
2023-03-10T04:01:12.810Z,4.81
2023-03-10T04:03:42.224Z,4.46
2023-03-10T04:06:11.067Z,4.39
2023-03-10T04:08:39.923Z,4.58
2023-03-10T04:11:08.361Z,4.39
2023-03-10T04:13:37.510Z,4.43
2023-03-10T04:16:06.933Z,4.45
2023-03-10T04:18:35.970Z,4.29
2023-03-10T04:21:04.637Z,4.36
2023-03-10T04:23:33.573Z,4.35
2023-03-10T04:26:02.294Z,4.28
2023-03-10T04:28:31.079Z,4.31
2023-03-10T04:31:02.006Z,4.18
2023-03-10T04:33:31.890Z,4.11
2023-03-10T04:36:04.008Z,4.24
2023-03-10T04:38:33.120Z,4.36
2023-03-10T04:41:02.964Z,4.44
2023-03-10T04:43:33.634Z,4.41
2023-03-10T04:46:02.724Z,4.41
2023-03-10T04:48:32.034Z,4.40
2023-03-10T04:51:06.840Z,4.38
2023-03-10T04:53:36.852Z,4.41
2023-03-10T04:56:07.765Z,4.36
2023-03-10T04:58:36.715Z,4.41
2023-03-10T05:01:14.125Z,4.42
2023-03-10T05:03:43.771Z,4.39
2023-03-10T05:06:15.422Z,4.43
2023-03-10T05:08:44.406Z,4.31
2023-03-10T05:11:13.017Z,4.06
2023-03-10T05:13:41.558Z,4.23
2023-03-10T05:16:18.803Z,4.29
2023-03-10T05:18:48.028Z,4.44
2023-03-10T05:21:16.913Z,4.39
2023-03-10T05:23:45.500Z,4.35
2023-03-10T05:26:14.193Z,4.57
2023-03-10T05:28:42.680Z,4.73
2023-03-10T05:31:13.509Z,3.83
2023-03-10T05:33:44.524Z,3.82
2023-03-10T05:36:14.833Z,4.17
2023-03-10T05:38:44.577Z,4.31
2023-03-10T05:41:13.758Z,3.66
2023-03-10T05:43:42.684Z,3.78
2023-03-10T05:46:11.881Z,3.94
2023-03-10T05:48:42.869Z,4.05
2023-03-10T05:51:12.667Z,3.89
2023-03-10T05:53:41.759Z,4.07
2023-03-10T05:56:16.180Z,4.13
2023-03-10T05:58:45.924Z,4.05
2023-03-10T06:01:15.096Z,4.34
2023-03-10T06:03:45.228Z,4.61
2023-03-10T06:06:13.540Z,4.69
2023-03-10T06:08:43.044Z,4.84
2023-03-10T06:11:11.732Z,5.04
2023-03-10T06:13:40.252Z,5.10
2023-03-10T06:16:08.642Z,5.30
2023-03-10T06:18:37.979Z,5.44
2023-03-10T06:21:11.855Z,5.59
2023-03-10T06:23:41.235Z,5.75
2023-03-10T06:26:14.881Z,5.91
2023-03-10T06:28:45.510Z,6.06
2023-03-10T06:31:22.875Z,6.18
2023-03-10T06:33:52.000Z,6.24
2023-03-10T06:36:21.553Z,6.15
2023-03-10T06:38:50.013Z,6.15
2023-03-10T06:41:19.112Z,6.28
2023-03-10T06:43:47.955Z,6.35
2023-03-10T06:46:17.185Z,6.51
2023-03-10T06:48:45.762Z,6.65
2023-03-10T06:51:19.941Z,6.81
2023-03-10T06:53:49.605Z,6.96
2023-03-10T06:56:20.980Z,7.08
2023-03-10T06:58:49.719Z,7.21
2023-03-10T07:01:25.176Z,7.35
2023-03-10T07:03:54.612Z,7.38
2023-03-10T07:06:23.283Z,7.62
2023-03-10T07:08:52.470Z,7.75
2023-03-10T07:11:21.505Z,7.97
2023-03-10T07:13:50.301Z,8.11
2023-03-10T07:16:19.267Z,8.13
2023-03-10T07:18:48.220Z,8.34
2023-03-10T07:21:19.938Z,8.48
2023-03-10T07:23:50.166Z,8.61
2023-03-10T07:26:18.967Z,8.57
2023-03-10T07:28:47.209Z,8.47
2023-03-10T07:31:16.548Z,8.43
2023-03-10T07:33:44.936Z,8.50
2023-03-10T07:36:15.648Z,8.65
2023-03-10T07:38:45.076Z,8.92
2023-03-10T07:41:17.219Z,8.94
2023-03-10T07:43:46.585Z,9.22
2023-03-10T07:46:15.819Z,9.43
2023-03-10T07:48:44.332Z,9.50
2023-03-10T07:51:13.622Z,9.81
2023-03-10T07:53:42.330Z,10.08
2023-03-10T07:56:15.812Z,10.32
2023-03-10T07:58:44.532Z,10.80
2023-03-10T08:01:19.264Z,10.99
2023-03-10T08:03:48.052Z,10.66
2023-03-10T08:06:21.497Z,10.84
2023-03-10T08:08:50.853Z,10.92
2023-03-10T08:11:20.090Z,11.11
2023-03-10T08:13:49.197Z,11.21
2023-03-10T08:16:21.062Z,11.12
2023-03-10T08:18:51.253Z,11.28
2023-03-10T08:21:20.520Z,11.17
2023-03-10T08:23:48.785Z,11.79
2023-03-10T08:26:19.063Z,12.83
2023-03-10T08:28:48.110Z,13.13
2023-03-10T08:31:19.671Z,13.55
2023-03-10T08:33:48.903Z,14.23
2023-03-10T08:36:19.741Z,14.86
2023-03-10T08:38:50.418Z,14.96
2023-03-10T08:41:23.203Z,15.35
2023-03-10T08:43:54.552Z,15.21
2023-03-10T08:46:24.773Z,15.65
2023-03-10T08:48:54.025Z,16.15
2023-03-10T08:51:22.733Z,16.05
2023-03-10T08:53:52.010Z,16.69
2023-03-10T08:56:21.715Z,16.81
2023-03-10T08:58:50.889Z,17.00
2023-03-10T09:01:19.657Z,17.38
2023-03-10T09:03:48.495Z,18.08
2023-03-10T09:06:17.084Z,17.32
2023-03-10T09:08:45.955Z,16.94
2023-03-10T09:11:21.607Z,17.34
2023-03-10T09:13:50.229Z,16.62
2023-03-10T09:16:19.044Z,17.07
2023-03-10T09:18:47.909Z,17.69
2023-03-10T09:21:18.220Z,18.76
2023-03-10T09:23:49.188Z,18.37
2023-03-10T09:26:17.325Z,17.69
2023-03-10T09:28:47.266Z,18.43
2023-03-10T09:31:19.605Z,17.35
2023-03-10T09:33:48.606Z,17.02
2023-03-10T09:36:17.713Z,17.57
2023-03-10T09:38:46.030Z,16.96
2023-03-10T09:41:29.564Z,17.46
2023-03-10T09:44:38.001Z,17.66
2023-03-10T09:47:20.052Z,17.85
2023-03-10T09:50:03.804Z,18.24
2023-03-10T09:52:44.517Z,17.99
2023-03-10T09:55:21.556Z,17.37
2023-03-10T09:57:55.815Z,16.43
2023-03-10T10:00:35.835Z,16.21
2023-03-10T10:03:23.170Z,16.76
2023-03-10T10:05:55.429Z,16.82
2023-03-10T10:08:29.197Z,16.56
2023-03-10T10:10:59.694Z,16.76
2023-03-10T10:13:30.716Z,17.14
2023-03-10T10:16:34.313Z,17.09
2023-03-10T10:19:14.499Z,16.71
2023-03-10T10:21:57.754Z,16.38
2023-03-10T10:24:26.349Z,16.16
2023-03-10T10:26:54.405Z,15.92
2023-03-10T10:29:25.393Z,16.28
2023-03-10T10:32:09.695Z,16.63
2023-03-10T10:34:43.998Z,16.50
2023-03-10T10:37:24.597Z,16.61
2023-03-10T10:39:55.077Z,17.25
2023-03-10T10:42:26.924Z,16.74
2023-03-10T10:44:58.342Z,16.79
2023-03-10T10:47:47.397Z,17.29
2023-03-10T10:50:35.247Z,17.10
2023-03-10T10:53:13.781Z,17.23
2023-03-10T10:55:45.262Z,17.65
2023-03-10T10:58:37.036Z,17.66
2023-03-10T11:01:08.901Z,16.77
2023-03-10T11:03:39.681Z,17.32
2023-03-10T11:06:30.019Z,17.73
2023-03-10T11:09:23.293Z,17.74
2023-03-10T11:12:08.033Z,17.69
2023-03-10T11:14:57.130Z,17.57
2023-03-10T11:17:35.193Z,17.39
2023-03-10T11:20:17.134Z,17.46
2023-03-10T11:23:18.083Z,17.55
2023-03-10T11:25:59.305Z,17.51
2023-03-10T11:28:34.022Z,17.98
2023-03-10T11:31:19.205Z,18.10
2023-03-10T11:34:04.434Z,18.01
2023-03-10T11:36:56.634Z,18.23
2023-03-10T11:39:45.600Z,17.93
2023-03-10T11:42:19.593Z,17.55
2023-03-10T11:44:54.917Z,17.12
2023-03-10T11:47:30.678Z,17.40
2023-03-10T11:50:55.124Z,17.55
2023-03-10T11:53:46.709Z,17.50
2023-03-10T11:56:18.857Z,17.51
2023-03-10T11:58:53.657Z,17.29
2023-03-10T12:01:28.823Z,17.46
2023-03-10T12:04:12.696Z,17.29
2023-03-10T12:07:07.857Z,17.27
2023-03-10T12:09:39.896Z,17.36
2023-03-10T12:12:15.084Z,17.37
2023-03-10T12:14:45.181Z,16.80
2023-03-10T12:17:15.424Z,16.58
2023-03-10T12:20:10.687Z,16.47
2023-03-10T12:22:42.194Z,16.94
2023-03-10T12:25:40.063Z,16.87
2023-03-10T12:28:17.568Z,16.98
2023-03-10T12:30:56.885Z,17.14
2023-03-10T12:33:31.345Z,17.04
2023-03-10T12:36:21.580Z,17.18
2023-03-10T12:38:54.014Z,17.25
2023-03-10T12:41:28.489Z,16.99
2023-03-10T12:44:00.995Z,16.95
2023-03-10T12:46:49.461Z,16.96
2023-03-10T12:49:43.382Z,16.94
2023-03-10T12:52:35.923Z,16.96
2023-03-10T12:55:24.598Z,16.99
2023-03-10T12:57:55.974Z,17.05
2023-03-10T13:00:31.796Z,16.88
2023-03-10T13:03:25.091Z,16.80
2023-03-10T13:06:01.945Z,16.74
2023-03-10T13:08:37.087Z,16.91
2023-03-10T13:11:26.100Z,16.86
2023-03-10T13:14:00.221Z,16.85
2023-03-10T13:16:28.507Z,17.02
2023-03-10T13:19:00.448Z,16.88
2023-03-10T13:21:30.344Z,16.79
2023-03-10T13:24:01.641Z,17.01
2023-03-10T13:26:30.428Z,16.94
2023-03-10T13:29:01.721Z,17.04
2023-03-10T13:31:33.896Z,16.84
2023-03-10T13:34:20.942Z,16.73
2023-03-10T13:36:49.862Z,16.64
2023-03-10T13:39:27.713Z,16.76
2023-03-10T13:41:59.387Z,16.72
2023-03-10T13:44:40.024Z,16.71
2023-03-10T13:47:25.393Z,16.86
2023-03-10T13:49:59.760Z,17.00
2023-03-10T13:52:30.960Z,16.90
2023-03-10T13:55:13.141Z,16.81
2023-03-10T13:57:43.190Z,16.86
2023-03-10T14:00:16.236Z,16.88
2023-03-10T14:02:48.094Z,16.96
2023-03-10T14:05:46.035Z,16.96
2023-03-10T14:08:40.616Z,16.95
2023-03-10T14:11:46.961Z,16.85
2023-03-10T14:14:31.202Z,16.83
2023-03-10T14:17:05.852Z,16.82
2023-03-10T14:19:43.473Z,16.68
2023-03-10T14:22:43.333Z,16.55
2023-03-10T14:25:13.589Z,16.44
2023-03-10T14:27:44.791Z,16.57
2023-03-10T14:30:25.731Z,16.46
2023-03-10T14:32:55.388Z,16.26
2023-03-10T14:35:24.210Z,16.15
2023-03-10T14:37:53.106Z,15.99
2023-03-10T14:40:23.845Z,15.79
2023-03-10T14:42:54.450Z,15.86
2023-03-10T14:45:36.390Z,15.90
2023-03-10T14:48:19.049Z,15.83
2023-03-10T14:50:48.345Z,15.65
2023-03-10T14:53:24.018Z,15.66
2023-03-10T14:55:57.351Z,15.68
2023-03-10T14:58:30.794Z,15.67
2023-03-10T15:01:00.672Z,15.51
2023-03-10T15:03:29.218Z,15.41
2023-03-10T15:05:57.233Z,15.37
2023-03-10T15:08:25.569Z,15.22
2023-03-10T15:10:54.370Z,15.15
2023-03-10T15:13:25.582Z,15.14
2023-03-10T15:15:54.167Z,15.17
2023-03-10T15:18:24.373Z,15.13
2023-03-10T15:20:59.087Z,15.05
2023-03-10T15:23:28.676Z,14.96
2023-03-10T15:25:57.903Z,14.83
2023-03-10T15:28:26.370Z,14.74
2023-03-10T15:30:55.160Z,14.68
2023-03-10T15:33:23.246Z,14.55
2023-03-10T15:35:51.877Z,14.47
2023-03-10T15:38:20.330Z,14.42
2023-03-10T15:40:48.441Z,14.34
2023-03-10T15:43:19.655Z,14.31
2023-03-10T15:45:50.340Z,14.25
2023-03-10T15:48:19.225Z,14.19
2023-03-10T15:50:48.011Z,14.15
2023-03-10T15:53:16.385Z,14.17
2023-03-10T15:55:44.702Z,14.06
2023-03-10T15:58:13.221Z,14.04
2023-03-10T16:00:43.781Z,14.01
2023-03-10T16:03:12.670Z,14.02
2023-03-10T16:05:48.661Z,13.97
2023-03-10T16:08:19.046Z,13.95
2023-03-10T16:10:55.060Z,13.93
2023-03-10T16:13:25.299Z,13.90
2023-03-10T16:15:53.750Z,13.86
2023-03-10T16:18:22.322Z,13.84
2023-03-10T16:21:01.944Z,13.72
2023-03-10T16:23:32.812Z,13.69
2023-03-10T16:26:10.449Z,13.64
2023-03-10T16:28:42.232Z,13.53
2023-03-10T16:31:12.970Z,13.44
2023-03-10T16:33:41.939Z,13.40
2023-03-10T16:36:14.852Z,13.38
2023-03-10T16:38:43.094Z,13.36
2023-03-10T16:41:12.591Z,13.44
2023-03-10T16:43:41.043Z,13.31
2023-03-10T16:46:13.411Z,13.28
2023-03-10T16:48:46.837Z,13.14
2023-03-10T16:51:35.311Z,13.08
2023-03-10T16:54:05.601Z,13.09
2023-03-10T16:56:37.871Z,13.08
2023-03-10T16:59:07.074Z,12.99
2023-03-10T17:01:35.639Z,13.01
2023-03-10T17:04:03.907Z,13.00
2023-03-10T17:06:33.410Z,12.82
2023-03-10T17:09:03.657Z,12.86
2023-03-10T17:11:35.482Z,12.80
2023-03-10T17:14:07.328Z,12.74
2023-03-10T17:16:36.536Z,12.82
2023-03-10T17:19:08.516Z,12.77
2023-03-10T17:21:40.298Z,12.76
2023-03-10T17:24:10.219Z,12.57
2023-03-10T17:26:38.982Z,12.64
2023-03-10T17:29:07.726Z,12.57
2023-03-10T17:31:37.115Z,12.63
2023-03-10T17:34:08.447Z,12.52
2023-03-10T17:36:37.674Z,12.47
2023-03-10T17:39:06.747Z,12.51
2023-03-10T17:41:36.524Z,12.59
2023-03-10T17:44:05.507Z,12.63
2023-03-10T17:46:33.856Z,12.69
2023-03-10T17:49:03.120Z,12.71
2023-03-10T17:51:36.202Z,12.68
2023-03-10T17:54:04.478Z,12.72
2023-03-10T17:56:33.030Z,12.67
2023-03-10T17:59:01.208Z,12.66
2023-03-10T18:01:31.137Z,12.53
2023-03-10T18:04:00.794Z,12.40
2023-03-10T18:06:32.573Z,12.27
2023-03-10T18:09:04.670Z,12.28
2023-03-10T18:11:34.667Z,12.35
2023-03-10T18:14:04.574Z,12.29
2023-03-10T18:16:35.920Z,12.27
2023-03-10T18:19:10.496Z,12.34
2023-03-10T18:21:39.919Z,12.26
2023-03-10T18:24:11.889Z,12.23
2023-03-10T18:26:43.418Z,12.44
2023-03-10T18:29:13.517Z,12.24
2023-03-10T18:31:42.111Z,12.20
2023-03-10T18:34:11.067Z,12.10
2023-03-10T18:36:42.886Z,11.58
2023-03-10T18:39:11.931Z,11.21
2023-03-10T18:41:41.030Z,11.07
2023-03-10T18:44:09.780Z,10.82
2023-03-10T18:46:38.066Z,10.73
2023-03-10T18:49:07.409Z,10.56
2023-03-10T18:51:36.329Z,10.52
2023-03-10T18:54:06.799Z,10.43
2023-03-10T18:56:35.753Z,10.36
2023-03-10T18:59:03.993Z,10.21
2023-03-10T19:01:33.149Z,10.13
2023-03-10T19:04:02.458Z,10.12
2023-03-10T19:06:32.240Z,10.12
2023-03-10T19:09:01.508Z,10.11
2023-03-10T19:11:35.360Z,10.09
2023-03-10T19:14:06.363Z,10.08
2023-03-10T19:16:35.765Z,9.89
2023-03-10T19:19:04.020Z,9.90
2023-03-10T19:21:39.025Z,9.94
2023-03-10T19:24:07.716Z,9.99
2023-03-10T19:26:35.890Z,9.94
2023-03-10T19:29:05.568Z,10.03
2023-03-10T19:31:34.334Z,9.97
2023-03-10T19:34:02.575Z,9.81
2023-03-10T19:36:31.047Z,9.67
2023-03-10T19:38:59.913Z,9.69
2023-03-10T19:41:28.982Z,9.74
2023-03-10T19:43:58.350Z,9.79
2023-03-10T19:46:27.172Z,9.76
2023-03-10T19:48:55.909Z,9.82
2023-03-10T19:51:29.123Z,9.64
2023-03-10T19:53:58.839Z,9.45
2023-03-10T19:56:27.776Z,9.47
2023-03-10T19:58:56.657Z,9.56
2023-03-10T20:01:26.744Z,9.64
2023-03-10T20:03:58.469Z,9.65
2023-03-10T20:06:27.836Z,9.60
2023-03-10T20:08:57.485Z,9.56
2023-03-10T20:11:25.984Z,9.41
2023-03-10T20:13:55.101Z,9.24
2023-03-10T20:16:26.707Z,9.10
2023-03-10T20:18:55.620Z,9.22
2023-03-10T20:21:25.536Z,9.38
2023-03-10T20:23:56.185Z,9.37
2023-03-10T20:26:25.181Z,9.35
2023-03-10T20:28:53.536Z,9.37
2023-03-10T20:31:23.429Z,9.35
2023-03-10T20:33:52.258Z,9.40
2023-03-10T20:36:20.797Z,9.30
2023-03-10T20:38:48.954Z,9.51
2023-03-10T20:41:19.653Z,9.47
2023-03-10T20:43:48.360Z,9.48
2023-03-10T20:46:22.617Z,9.33
2023-03-10T20:48:51.597Z,9.27
2023-03-10T20:51:22.614Z,9.28
2023-03-10T20:53:52.060Z,9.24
2023-03-10T20:56:20.525Z,9.12
2023-03-10T20:58:49.034Z,9.01
2023-03-10T21:01:21.255Z,8.94
2023-03-10T21:03:54.544Z,8.99
2023-03-10T21:06:25.142Z,8.96
2023-03-10T21:08:53.622Z,8.97
2023-03-10T21:11:22.216Z,8.91
2023-03-10T21:13:51.888Z,9.06
2023-03-10T21:16:21.041Z,8.94
2023-03-10T21:18:49.345Z,8.97
2023-03-10T21:21:18.202Z,8.81
2023-03-10T21:23:46.666Z,8.80
2023-03-10T21:26:18.881Z,8.90
2023-03-10T21:28:47.312Z,8.86
2023-03-10T21:31:16.200Z,8.87
2023-03-10T21:33:44.594Z,8.97
2023-03-10T21:36:18.758Z,9.04
2023-03-10T21:38:51.686Z,9.06
2023-03-10T21:41:24.070Z,9.18
2023-03-10T21:43:54.748Z,9.14
2023-03-10T21:46:24.060Z,9.30
2023-03-10T21:48:52.744Z,9.24
2023-03-10T21:51:23.563Z,9.22
2023-03-10T21:53:53.901Z,9.36
2023-03-10T21:56:25.766Z,9.30
2023-03-10T21:58:56.316Z,9.21
2023-03-10T22:01:25.343Z,9.25
2023-03-10T22:03:53.870Z,9.34
2023-03-10T22:06:22.567Z,9.38
2023-03-10T22:08:50.758Z,9.39
2023-03-10T22:11:19.285Z,9.40
2023-03-10T22:13:48.808Z,9.33
2023-03-10T22:16:18.185Z,9.32
2023-03-10T22:18:46.890Z,9.29
2023-03-10T22:21:16.219Z,9.26
2023-03-10T22:23:44.530Z,9.38
2023-03-10T22:26:13.883Z,9.45
2023-03-10T22:28:42.412Z,9.55
2023-03-10T22:31:11.265Z,9.43
2023-03-10T22:33:39.979Z,9.44
2023-03-10T22:36:11.562Z,9.62
2023-03-10T22:38:40.381Z,9.60
2023-03-10T22:41:11.035Z,9.50
2023-03-10T22:43:40.207Z,9.66
2023-03-10T22:46:10.565Z,9.75
2023-03-10T22:48:39.194Z,9.55
2023-03-10T22:51:09.660Z,9.65
2023-03-10T22:53:38.242Z,9.84
2023-03-10T22:56:06.828Z,9.73
2023-03-10T22:58:36.160Z,9.79
2023-03-10T23:01:04.859Z,9.74
2023-03-10T23:03:34.665Z,9.79
2023-03-10T23:06:05.022Z,9.72
2023-03-10T23:08:35.239Z,9.64
2023-03-10T23:11:10.252Z,9.71
2023-03-10T23:13:38.619Z,9.63
2023-03-10T23:16:07.747Z,9.64
2023-03-10T23:18:36.485Z,9.60
2023-03-10T23:21:05.817Z,9.66
2023-03-10T23:23:34.939Z,9.48
2023-03-10T23:26:03.213Z,9.54
2023-03-10T23:28:31.521Z,9.37
2023-03-10T23:31:00.542Z,9.56
2023-03-10T23:33:28.718Z,9.42
2023-03-10T23:35:57.013Z,9.57
2023-03-10T23:38:26.587Z,9.66
2023-03-10T23:40:57.763Z,9.68
2023-03-10T23:43:26.785Z,9.56
2023-03-10T23:45:54.987Z,9.52
2023-03-10T23:48:24.780Z,9.57
2023-03-10T23:50:53.383Z,9.55
2023-03-10T23:53:21.813Z,9.60
2023-03-10T23:55:50.460Z,9.49
2023-03-10T23:58:19.702Z,9.42
